sensor_id;sensor_type;location;lat;lon;timestamp;P1;durP1;ratioP1;P2;durP2;ratioP2
12271;SDS011;6198;51.446;6.698;2022-12-22T00:01:49;23.80;;;18.30;;
12271;SDS011;6198;51.446;6.698;2022-12-22T00:04:33;28.07;;;16.70;;
12271;SDS011;6198;51.446;6.698;2022-12-22T00:07:18;35.60;;;29.57;;
12271;SDS011;6198;51.446;6.698;2022-12-22T00:10:03;24.53;;;20.63;;
12271;SDS011;6198;51.446;6.698;2022-12-22T00:12:48;23.63;;;17.97;;
12271;SDS011;6198;51.446;6.698;2022-12-22T00:15:33;20.83;;;16.10;;
12271;SDS011;6198;51.446;6.698;2022-12-22T00:18:18;19.43;;;16.73;;
12271;SDS011;6198;51.446;6.698;2022-12-22T00:21:03;19.97;;;16.27;;
12271;SDS011;6198;51.446;6.698;2022-12-22T00:23:47;19.10;;;16.27;;
12271;SDS011;6198;51.446;6.698;2022-12-22T00:26:32;19.40;;;16.80;;
12271;SDS011;6198;51.446;6.698;2022-12-22T00:29:17;21.63;;;16.00;;
12271;SDS011;6198;51.446;6.698;2022-12-22T00:32:01;21.43;;;17.20;;
12271;SDS011;6198;51.446;6.698;2022-12-22T00:34:47;22.70;;;16.80;;
12271;SDS011;6198;51.446;6.698;2022-12-22T00:37:33;27.40;;;17.50;;
12271;SDS011;6198;51.446;6.698;2022-12-22T00:40:18;23.97;;;17.87;;
12271;SDS011;6198;51.446;6.698;2022-12-22T00:43:03;22.33;;;17.07;;
12271;SDS011;6198;51.446;6.698;2022-12-22T00:45:47;24.20;;;17.60;;
12271;SDS011;6198;51.446;6.698;2022-12-22T00:48:32;21.63;;;17.07;;
12271;SDS011;6198;51.446;6.698;2022-12-22T00:51:17;29.73;;;17.97;;
12271;SDS011;6198;51.446;6.698;2022-12-22T00:54:01;19.43;;;16.60;;
12271;SDS011;6198;51.446;6.698;2022-12-22T00:56:46;23.83;;;17.33;;
12271;SDS011;6198;51.446;6.698;2022-12-22T00:59:31;22.83;;;18.53;;
12271;SDS011;6198;51.446;6.698;2022-12-22T01:02:16;24.93;;;18.17;;
12271;SDS011;6198;51.446;6.698;2022-12-22T01:05:01;23.07;;;18.43;;
12271;SDS011;6198;51.446;6.698;2022-12-22T01:07:45;23.70;;;19.77;;
12271;SDS011;6198;51.446;6.698;2022-12-22T01:10:30;25.07;;;18.87;;
12271;SDS011;6198;51.446;6.698;2022-12-22T01:13:15;22.60;;;18.33;;
12271;SDS011;6198;51.446;6.698;2022-12-22T01:16:00;23.30;;;17.93;;
12271;SDS011;6198;51.446;6.698;2022-12-22T01:18:44;24.90;;;19.00;;
12271;SDS011;6198;51.446;6.698;2022-12-22T01:21:29;23.03;;;19.10;;
12271;SDS011;6198;51.446;6.698;2022-12-22T01:24:14;25.90;;;19.10;;
12271;SDS011;6198;51.446;6.698;2022-12-22T01:27:00;27.30;;;19.50;;
12271;SDS011;6198;51.446;6.698;2022-12-22T01:29:44;27.43;;;19.40;;
12271;SDS011;6198;51.446;6.698;2022-12-22T01:32:29;23.77;;;19.03;;
12271;SDS011;6198;51.446;6.698;2022-12-22T01:35:22;25.57;;;20.23;;
12271;SDS011;6198;51.446;6.698;2022-12-22T01:38:07;22.53;;;19.53;;
12271;SDS011;6198;51.446;6.698;2022-12-22T01:40:52;22.73;;;18.97;;
12271;SDS011;6198;51.446;6.698;2022-12-22T01:43:37;24.30;;;18.30;;
12271;SDS011;6198;51.446;6.698;2022-12-22T01:46:26;25.00;;;18.23;;
12271;SDS011;6198;51.446;6.698;2022-12-22T01:49:16;23.90;;;18.77;;
12271;SDS011;6198;51.446;6.698;2022-12-22T01:52:02;25.33;;;19.30;;
12271;SDS011;6198;51.446;6.698;2022-12-22T01:54:47;25.83;;;18.47;;
12271;SDS011;6198;51.446;6.698;2022-12-22T01:57:32;24.83;;;18.63;;
12271;SDS011;6198;51.446;6.698;2022-12-22T02:00:18;28.23;;;18.57;;
12271;SDS011;6198;51.446;6.698;2022-12-22T02:03:02;26.50;;;18.17;;
12271;SDS011;6198;51.446;6.698;2022-12-22T02:05:56;22.20;;;18.50;;
12271;SDS011;6198;51.446;6.698;2022-12-22T02:08:44;25.33;;;18.37;;
12271;SDS011;6198;51.446;6.698;2022-12-22T02:11:45;22.67;;;17.50;;
12271;SDS011;6198;51.446;6.698;2022-12-22T02:14:45;23.10;;;17.07;;
12271;SDS011;6198;51.446;6.698;2022-12-22T02:18:06;22.10;;;18.33;;
12271;SDS011;6198;51.446;6.698;2022-12-22T02:20:54;25.83;;;17.10;;
12271;SDS011;6198;51.446;6.698;2022-12-22T02:26:30;24.53;;;17.80;;
12271;SDS011;6198;51.446;6.698;2022-12-22T02:29:16;22.83;;;17.93;;
12271;SDS011;6198;51.446;6.698;2022-12-22T02:32:02;21.93;;;17.23;;
12271;SDS011;6198;51.446;6.698;2022-12-22T02:34:46;20.67;;;16.57;;
12271;SDS011;6198;51.446;6.698;2022-12-22T02:40:28;19.33;;;16.63;;
12271;SDS011;6198;51.446;6.698;2022-12-22T02:46:04;22.20;;;17.10;;
12271;SDS011;6198;51.446;6.698;2022-12-22T02:51:57;18.83;;;14.97;;
12271;SDS011;6198;51.446;6.698;2022-12-22T02:54:43;24.50;;;16.17;;
12271;SDS011;6198;51.446;6.698;2022-12-22T02:57:28;20.60;;;15.40;;
12271;SDS011;6198;51.446;6.698;2022-12-22T03:00:13;19.77;;;15.00;;
12271;SDS011;6198;51.446;6.698;2022-12-22T03:02:58;20.80;;;15.70;;
12271;SDS011;6198;51.446;6.698;2022-12-22T03:05:42;22.37;;;16.83;;
12271;SDS011;6198;51.446;6.698;2022-12-22T03:08:27;18.87;;;15.03;;
12271;SDS011;6198;51.446;6.698;2022-12-22T03:11:11;20.87;;;16.07;;
12271;SDS011;6198;51.446;6.698;2022-12-22T03:13:56;27.57;;;16.43;;
12271;SDS011;6198;51.446;6.698;2022-12-22T03:16:40;22.77;;;16.63;;
12271;SDS011;6198;51.446;6.698;2022-12-22T03:19:25;23.83;;;16.73;;
12271;SDS011;6198;51.446;6.698;2022-12-22T03:22:09;23.67;;;16.47;;
12271;SDS011;6198;51.446;6.698;2022-12-22T03:24:54;20.37;;;16.07;;
12271;SDS011;6198;51.446;6.698;2022-12-22T03:27:38;22.53;;;15.83;;
12271;SDS011;6198;51.446;6.698;2022-12-22T03:30:04;21.20;;;16.53;;
12271;SDS011;6198;51.446;6.698;2022-12-22T03:32:30;21.10;;;15.07;;
12271;SDS011;6198;51.446;6.698;2022-12-22T03:34:56;20.93;;;15.77;;
12271;SDS011;6198;51.446;6.698;2022-12-22T03:37:22;22.67;;;15.63;;
12271;SDS011;6198;51.446;6.698;2022-12-22T03:39:48;20.07;;;15.33;;
12271;SDS011;6198;51.446;6.698;2022-12-22T03:42:14;20.47;;;15.33;;
12271;SDS011;6198;51.446;6.698;2022-12-22T03:44:58;21.50;;;16.07;;
12271;SDS011;6198;51.446;6.698;2022-12-22T03:47:43;22.23;;;15.60;;
12271;SDS011;6198;51.446;6.698;2022-12-22T03:50:09;24.97;;;15.67;;
12271;SDS011;6198;51.446;6.698;2022-12-22T03:52:35;17.73;;;13.37;;
12271;SDS011;6198;51.446;6.698;2022-12-22T03:55:01;20.53;;;14.63;;
12271;SDS011;6198;51.446;6.698;2022-12-22T03:57:27;18.20;;;14.57;;
12271;SDS011;6198;51.446;6.698;2022-12-22T03:59:53;19.80;;;13.83;;
12271;SDS011;6198;51.446;6.698;2022-12-22T04:02:19;18.33;;;13.80;;
12271;SDS011;6198;51.446;6.698;2022-12-22T04:04:45;17.07;;;13.27;;
12271;SDS011;6198;51.446;6.698;2022-12-22T04:07:11;16.73;;;12.67;;
12271;SDS011;6198;51.446;6.698;2022-12-22T04:09:36;20.33;;;13.87;;
12271;SDS011;6198;51.446;6.698;2022-12-22T04:12:22;15.87;;;12.80;;
12271;SDS011;6198;51.446;6.698;2022-12-22T04:15:07;18.80;;;12.40;;
12271;SDS011;6198;51.446;6.698;2022-12-22T04:17:33;18.20;;;14.63;;
12271;SDS011;6198;51.446;6.698;2022-12-22T04:19:59;22.43;;;16.40;;
12271;SDS011;6198;51.446;6.698;2022-12-22T04:22:25;22.33;;;17.70;;
12271;SDS011;6198;51.446;6.698;2022-12-22T04:24:51;23.60;;;17.73;;
12271;SDS011;6198;51.446;6.698;2022-12-22T04:27:17;20.90;;;16.63;;
12271;SDS011;6198;51.446;6.698;2022-12-22T04:29:43;29.20;;;16.67;;
12271;SDS011;6198;51.446;6.698;2022-12-22T04:32:09;20.13;;;16.03;;
12271;SDS011;6198;51.446;6.698;2022-12-22T04:34:35;18.43;;;14.67;;
12271;SDS011;6198;51.446;6.698;2022-12-22T04:37:01;36.47;;;16.87;;
12271;SDS011;6198;51.446;6.698;2022-12-22T04:39:26;25.17;;;15.97;;
12271;SDS011;6198;51.446;6.698;2022-12-22T04:41:52;22.30;;;15.17;;
12271;SDS011;6198;51.446;6.698;2022-12-22T04:44:18;20.53;;;14.27;;
12271;SDS011;6198;51.446;6.698;2022-12-22T04:46:44;25.47;;;18.73;;
12271;SDS011;6198;51.446;6.698;2022-12-22T04:49:10;34.80;;;24.63;;
12271;SDS011;6198;51.446;6.698;2022-12-22T04:51:36;29.97;;;18.50;;
12271;SDS011;6198;51.446;6.698;2022-12-22T04:54:02;30.80;;;23.13;;
12271;SDS011;6198;51.446;6.698;2022-12-22T04:56:28;32.37;;;24.70;;
12271;SDS011;6198;51.446;6.698;2022-12-22T04:58:54;30.10;;;22.93;;
12271;SDS011;6198;51.446;6.698;2022-12-22T05:01:20;34.97;;;25.47;;
12271;SDS011;6198;51.446;6.698;2022-12-22T05:03:46;33.40;;;23.13;;
12271;SDS011;6198;51.446;6.698;2022-12-22T05:06:12;85.33;;;23.73;;
12271;SDS011;6198;51.446;6.698;2022-12-22T05:08:39;18.87;;;14.57;;
12271;SDS011;6198;51.446;6.698;2022-12-22T05:11:05;17.37;;;13.93;;
12271;SDS011;6198;51.446;6.698;2022-12-22T05:13:31;20.10;;;12.43;;
12271;SDS011;6198;51.446;6.698;2022-12-22T05:18:30;25.00;;;15.33;;
12271;SDS011;6198;51.446;6.698;2022-12-22T05:20:55;21.60;;;15.50;;
12271;SDS011;6198;51.446;6.698;2022-12-22T05:23:21;22.27;;;15.73;;
12271;SDS011;6198;51.446;6.698;2022-12-22T05:25:47;44.70;;;33.73;;
12271;SDS011;6198;51.446;6.698;2022-12-22T05:28:13;27.87;;;18.33;;
12271;SDS011;6198;51.446;6.698;2022-12-22T05:30:40;19.57;;;14.80;;
12271;SDS011;6198;51.446;6.698;2022-12-22T05:33:06;21.27;;;16.07;;
12271;SDS011;6198;51.446;6.698;2022-12-22T05:35:31;18.93;;;14.27;;
12271;SDS011;6198;51.446;6.698;2022-12-22T05:37:57;22.37;;;14.07;;
12271;SDS011;6198;51.446;6.698;2022-12-22T05:40:23;19.23;;;13.60;;
12271;SDS011;6198;51.446;6.698;2022-12-22T05:42:49;19.30;;;14.87;;
12271;SDS011;6198;51.446;6.698;2022-12-22T05:45:16;19.90;;;15.83;;
12271;SDS011;6198;51.446;6.698;2022-12-22T05:47:43;25.00;;;19.37;;
12271;SDS011;6198;51.446;6.698;2022-12-22T05:50:09;29.33;;;20.30;;
12271;SDS011;6198;51.446;6.698;2022-12-22T05:52:35;26.37;;;23.63;;
12271;SDS011;6198;51.446;6.698;2022-12-22T05:55:02;30.10;;;26.47;;
12271;SDS011;6198;51.446;6.698;2022-12-22T05:57:28;32.87;;;27.10;;
12271;SDS011;6198;51.446;6.698;2022-12-22T05:59:54;33.17;;;29.47;;
12271;SDS011;6198;51.446;6.698;2022-12-22T06:02:20;39.73;;;33.13;;
12271;SDS011;6198;51.446;6.698;2022-12-22T06:04:46;44.63;;;37.67;;
12271;SDS011;6198;51.446;6.698;2022-12-22T06:07:12;43.13;;;34.27;;
12271;SDS011;6198;51.446;6.698;2022-12-22T06:09:38;28.37;;;25.00;;
12271;SDS011;6198;51.446;6.698;2022-12-22T06:12:04;29.00;;;24.83;;
12271;SDS011;6198;51.446;6.698;2022-12-22T06:14:30;31.33;;;24.47;;
12271;SDS011;6198;51.446;6.698;2022-12-22T06:16:57;29.07;;;23.83;;
12271;SDS011;6198;51.446;6.698;2022-12-22T06:19:22;29.87;;;24.70;;
12271;SDS011;6198;51.446;6.698;2022-12-22T06:21:48;35.43;;;25.77;;
12271;SDS011;6198;51.446;6.698;2022-12-22T06:24:14;26.67;;;21.67;;
12271;SDS011;6198;51.446;6.698;2022-12-22T06:26:40;30.77;;;22.53;;
12271;SDS011;6198;51.446;6.698;2022-12-22T06:29:06;29.83;;;21.90;;
12271;SDS011;6198;51.446;6.698;2022-12-22T06:31:32;30.73;;;22.33;;
12271;SDS011;6198;51.446;6.698;2022-12-22T06:33:58;30.90;;;21.50;;
12271;SDS011;6198;51.446;6.698;2022-12-22T06:36:24;29.03;;;21.37;;
12271;SDS011;6198;51.446;6.698;2022-12-22T06:38:50;32.43;;;21.20;;
12271;SDS011;6198;51.446;6.698;2022-12-22T06:41:16;31.60;;;23.07;;
12271;SDS011;6198;51.446;6.698;2022-12-22T06:44:01;30.77;;;21.13;;
12271;SDS011;6198;51.446;6.698;2022-12-22T06:46:27;33.70;;;22.43;;
12271;SDS011;6198;51.446;6.698;2022-12-22T06:48:53;34.00;;;22.30;;
12271;SDS011;6198;51.446;6.698;2022-12-22T06:51:19;29.87;;;21.60;;
12271;SDS011;6198;51.446;6.698;2022-12-22T06:53:44;34.27;;;21.63;;
12271;SDS011;6198;51.446;6.698;2022-12-22T06:56:10;32.23;;;21.40;;
12271;SDS011;6198;51.446;6.698;2022-12-22T06:58:36;37.10;;;21.27;;
12271;SDS011;6198;51.446;6.698;2022-12-22T07:01:02;37.73;;;22.87;;
12271;SDS011;6198;51.446;6.698;2022-12-22T07:03:28;36.67;;;22.53;;
12271;SDS011;6198;51.446;6.698;2022-12-22T07:05:54;33.33;;;21.83;;
12271;SDS011;6198;51.446;6.698;2022-12-22T07:08:20;36.20;;;22.97;;
12271;SDS011;6198;51.446;6.698;2022-12-22T07:10:46;38.30;;;23.93;;
12271;SDS011;6198;51.446;6.698;2022-12-22T07:13:25;41.33;;;25.17;;
12271;SDS011;6198;51.446;6.698;2022-12-22T07:15:51;47.07;;;26.40;;
12271;SDS011;6198;51.446;6.698;2022-12-22T07:18:18;43.17;;;25.63;;
12271;SDS011;6198;51.446;6.698;2022-12-22T07:20:44;44.20;;;26.87;;
12271;SDS011;6198;51.446;6.698;2022-12-22T07:23:10;43.70;;;26.93;;
12271;SDS011;6198;51.446;6.698;2022-12-22T07:25:36;46.77;;;27.63;;
12271;SDS011;6198;51.446;6.698;2022-12-22T07:28:02;43.53;;;26.77;;
12271;SDS011;6198;51.446;6.698;2022-12-22T07:30:28;47.43;;;28.07;;
12271;SDS011;6198;51.446;6.698;2022-12-22T07:32:54;43.07;;;27.63;;
12271;SDS011;6198;51.446;6.698;2022-12-22T07:35:20;43.53;;;27.33;;
12271;SDS011;6198;51.446;6.698;2022-12-22T07:37:46;45.37;;;27.67;;
12271;SDS011;6198;51.446;6.698;2022-12-22T07:40:12;48.90;;;27.20;;
12271;SDS011;6198;51.446;6.698;2022-12-22T07:42:38;44.47;;;28.33;;
12271;SDS011;6198;51.446;6.698;2022-12-22T07:45:11;50.00;;;27.03;;
12271;SDS011;6198;51.446;6.698;2022-12-22T07:47:37;48.23;;;28.07;;
12271;SDS011;6198;51.446;6.698;2022-12-22T07:50:03;50.77;;;26.57;;
12271;SDS011;6198;51.446;6.698;2022-12-22T07:52:48;50.83;;;26.07;;
12271;SDS011;6198;51.446;6.698;2022-12-22T07:55:14;53.30;;;27.17;;
12271;SDS011;6198;51.446;6.698;2022-12-22T07:57:40;55.87;;;27.27;;
12271;SDS011;6198;51.446;6.698;2022-12-22T08:00:06;60.27;;;27.13;;
12271;SDS011;6198;51.446;6.698;2022-12-22T08:02:33;62.33;;;28.60;;
12271;SDS011;6198;51.446;6.698;2022-12-22T08:04:58;66.63;;;28.83;;
12271;SDS011;6198;51.446;6.698;2022-12-22T08:07:24;66.23;;;29.23;;
12271;SDS011;6198;51.446;6.698;2022-12-22T08:09:51;66.00;;;29.37;;
12271;SDS011;6198;51.446;6.698;2022-12-22T08:12:16;69.93;;;29.43;;
12271;SDS011;6198;51.446;6.698;2022-12-22T08:14:42;66.20;;;28.20;;
12271;SDS011;6198;51.446;6.698;2022-12-22T08:17:10;76.83;;;29.67;;
12271;SDS011;6198;51.446;6.698;2022-12-22T08:19:36;73.10;;;28.67;;
12271;SDS011;6198;51.446;6.698;2022-12-22T08:22:02;79.10;;;29.23;;
12271;SDS011;6198;51.446;6.698;2022-12-22T08:24:28;78.53;;;28.73;;
12271;SDS011;6198;51.446;6.698;2022-12-22T08:26:56;76.33;;;26.87;;
12271;SDS011;6198;51.446;6.698;2022-12-22T08:29:25;78.37;;;27.90;;
12271;SDS011;6198;51.446;6.698;2022-12-22T08:31:52;92.87;;;31.23;;
12271;SDS011;6198;51.446;6.698;2022-12-22T08:34:18;81.90;;;28.27;;
12271;SDS011;6198;51.446;6.698;2022-12-22T08:36:46;85.07;;;30.10;;
12271;SDS011;6198;51.446;6.698;2022-12-22T08:39:12;90.80;;;30.63;;
12271;SDS011;6198;51.446;6.698;2022-12-22T08:41:38;80.27;;;30.57;;
12271;SDS011;6198;51.446;6.698;2022-12-22T08:44:18;87.90;;;31.20;;
12271;SDS011;6198;51.446;6.698;2022-12-22T08:46:44;93.30;;;31.23;;
12271;SDS011;6198;51.446;6.698;2022-12-22T08:49:10;91.03;;;31.33;;
12271;SDS011;6198;51.446;6.698;2022-12-22T08:51:36;84.70;;;30.07;;
12271;SDS011;6198;51.446;6.698;2022-12-22T08:54:02;77.07;;;28.67;;
12271;SDS011;6198;51.446;6.698;2022-12-22T08:56:28;83.77;;;28.50;;
12271;SDS011;6198;51.446;6.698;2022-12-22T08:58:55;84.97;;;29.20;;
12271;SDS011;6198;51.446;6.698;2022-12-22T09:01:21;88.40;;;30.43;;
12271;SDS011;6198;51.446;6.698;2022-12-22T09:03:51;82.73;;;28.67;;
12271;SDS011;6198;51.446;6.698;2022-12-22T09:06:18;70.73;;;27.73;;
12271;SDS011;6198;51.446;6.698;2022-12-22T09:08:44;79.60;;;30.23;;
12271;SDS011;6198;51.446;6.698;2022-12-22T09:11:10;74.67;;;28.23;;
12271;SDS011;6198;51.446;6.698;2022-12-22T09:13:36;71.17;;;27.93;;
12271;SDS011;6198;51.446;6.698;2022-12-22T09:16:03;60.83;;;25.77;;
12271;SDS011;6198;51.446;6.698;2022-12-22T09:18:29;61.60;;;25.10;;
12271;SDS011;6198;51.446;6.698;2022-12-22T09:20:55;54.13;;;23.33;;
12271;SDS011;6198;51.446;6.698;2022-12-22T09:23:21;54.33;;;25.33;;
12271;SDS011;6198;51.446;6.698;2022-12-22T09:25:47;51.07;;;22.57;;
12271;SDS011;6198;51.446;6.698;2022-12-22T09:28:13;56.90;;;25.43;;
12271;SDS011;6198;51.446;6.698;2022-12-22T09:30:39;57.40;;;24.53;;
12271;SDS011;6198;51.446;6.698;2022-12-22T09:33:05;64.03;;;26.97;;
12271;SDS011;6198;51.446;6.698;2022-12-22T09:35:31;61.07;;;27.97;;
12271;SDS011;6198;51.446;6.698;2022-12-22T09:37:57;58.43;;;25.43;;
12271;SDS011;6198;51.446;6.698;2022-12-22T09:40:24;62.77;;;28.17;;
12271;SDS011;6198;51.446;6.698;2022-12-22T09:42:50;60.73;;;27.87;;
12271;SDS011;6198;51.446;6.698;2022-12-22T09:45:16;62.63;;;28.10;;
12271;SDS011;6198;51.446;6.698;2022-12-22T09:47:46;65.20;;;29.23;;
12271;SDS011;6198;51.446;6.698;2022-12-22T09:50:17;65.20;;;28.80;;
12271;SDS011;6198;51.446;6.698;2022-12-22T09:52:45;56.60;;;27.13;;
12271;SDS011;6198;51.446;6.698;2022-12-22T09:55:14;63.23;;;30.20;;
12271;SDS011;6198;51.446;6.698;2022-12-22T09:57:42;63.70;;;29.73;;
12271;SDS011;6198;51.446;6.698;2022-12-22T10:00:15;63.83;;;29.63;;
12271;SDS011;6198;51.446;6.698;2022-12-22T10:05:39;63.10;;;29.27;;
12271;SDS011;6198;51.446;6.698;2022-12-22T10:08:11;66.23;;;29.90;;
12271;SDS011;6198;51.446;6.698;2022-12-22T10:10:38;63.50;;;30.77;;
12271;SDS011;6198;51.446;6.698;2022-12-22T10:13:04;63.53;;;27.83;;
12271;SDS011;6198;51.446;6.698;2022-12-22T10:15:38;70.20;;;29.77;;
12271;SDS011;6198;51.446;6.698;2022-12-22T10:18:09;65.40;;;30.07;;
12271;SDS011;6198;51.446;6.698;2022-12-22T10:20:35;60.13;;;29.57;;
12271;SDS011;6198;51.446;6.698;2022-12-22T10:23:03;61.93;;;29.80;;
12271;SDS011;6198;51.446;6.698;2022-12-22T10:28:05;59.60;;;29.27;;
12271;SDS011;6198;51.446;6.698;2022-12-22T10:30:34;55.47;;;28.03;;
12271;SDS011;6198;51.446;6.698;2022-12-22T10:35:34;54.20;;;28.80;;
12271;SDS011;6198;51.446;6.698;2022-12-22T10:38:11;60.70;;;28.00;;
12271;SDS011;6198;51.446;6.698;2022-12-22T10:40:41;59.30;;;29.53;;
12271;SDS011;6198;51.446;6.698;2022-12-22T10:43:08;57.47;;;30.03;;
12271;SDS011;6198;51.446;6.698;2022-12-22T10:45:34;63.73;;;29.33;;
12271;SDS011;6198;51.446;6.698;2022-12-22T10:48:00;55.87;;;29.70;;
12271;SDS011;6198;51.446;6.698;2022-12-22T10:50:26;65.90;;;29.50;;
12271;SDS011;6198;51.446;6.698;2022-12-22T10:52:53;68.23;;;32.63;;
12271;SDS011;6198;51.446;6.698;2022-12-22T10:55:29;61.30;;;31.43;;
12271;SDS011;6198;51.446;6.698;2022-12-22T11:00:35;57.87;;;30.33;;
12271;SDS011;6198;51.446;6.698;2022-12-22T11:03:02;56.53;;;30.73;;
12271;SDS011;6198;51.446;6.698;2022-12-22T11:05:28;58.63;;;30.43;;
12271;SDS011;6198;51.446;6.698;2022-12-22T11:07:56;54.23;;;29.33;;
12271;SDS011;6198;51.446;6.698;2022-12-22T11:13:01;54.57;;;29.30;;
12271;SDS011;6198;51.446;6.698;2022-12-22T11:26:05;44.00;;;26.87;;
12271;SDS011;6198;51.446;6.698;2022-12-22T11:28:47;40.67;;;25.57;;
12271;SDS011;6198;51.446;6.698;2022-12-22T11:33:57;39.77;;;24.33;;
12271;SDS011;6198;51.446;6.698;2022-12-22T11:39:17;38.50;;;24.37;;
12271;SDS011;6198;51.446;6.698;2022-12-22T11:41:51;36.60;;;24.03;;
12271;SDS011;6198;51.446;6.698;2022-12-22T11:44:27;36.33;;;23.73;;
12271;SDS011;6198;51.446;6.698;2022-12-22T11:47:09;38.40;;;24.30;;
12271;SDS011;6198;51.446;6.698;2022-12-22T11:57:38;23.67;;;18.73;;
12271;SDS011;6198;51.446;6.698;2022-12-22T12:00:12;23.80;;;17.50;;
12271;SDS011;6198;51.446;6.698;2022-12-22T12:08:02;23.73;;;17.87;;
12271;SDS011;6198;51.446;6.698;2022-12-22T12:10:41;27.63;;;18.77;;
12271;SDS011;6198;51.446;6.698;2022-12-22T12:21:21;25.30;;;16.27;;
12271;SDS011;6198;51.446;6.698;2022-12-22T12:26:28;25.03;;;17.87;;
12271;SDS011;6198;51.446;6.698;2022-12-22T12:31:30;27.60;;;16.80;;
12271;SDS011;6198;51.446;6.698;2022-12-22T12:33:57;23.33;;;18.27;;
12271;SDS011;6198;51.446;6.698;2022-12-22T12:41:24;27.07;;;20.17;;
12271;SDS011;6198;51.446;6.698;2022-12-22T12:43:51;26.47;;;20.70;;
12271;SDS011;6198;51.446;6.698;2022-12-22T12:52:07;27.77;;;21.57;;
12271;SDS011;6198;51.446;6.698;2022-12-22T12:54:37;29.60;;;21.30;;
12271;SDS011;6198;51.446;6.698;2022-12-22T12:59:49;27.17;;;22.43;;
12271;SDS011;6198;51.446;6.698;2022-12-22T13:02:35;27.80;;;22.67;;
12271;SDS011;6198;51.446;6.698;2022-12-22T13:10:24;30.97;;;21.33;;
12271;SDS011;6198;51.446;6.698;2022-12-22T13:12:51;32.20;;;22.00;;
12271;SDS011;6198;51.446;6.698;2022-12-22T13:17:52;27.23;;;19.37;;
12271;SDS011;6198;51.446;6.698;2022-12-22T13:20:20;24.73;;;18.03;;
12271;SDS011;6198;51.446;6.698;2022-12-22T13:22:50;25.70;;;18.60;;
12271;SDS011;6198;51.446;6.698;2022-12-22T13:25:16;25.00;;;17.97;;
12271;SDS011;6198;51.446;6.698;2022-12-22T13:27:43;24.20;;;17.77;;
12271;SDS011;6198;51.446;6.698;2022-12-22T13:30:16;21.80;;;16.83;;
12271;SDS011;6198;51.446;6.698;2022-12-22T13:32:43;22.90;;;16.20;;
12271;SDS011;6198;51.446;6.698;2022-12-22T13:35:20;20.10;;;15.77;;
12271;SDS011;6198;51.446;6.698;2022-12-22T13:37:48;20.50;;;14.27;;
12271;SDS011;6198;51.446;6.698;2022-12-22T13:42:50;21.70;;;14.67;;
12271;SDS011;6198;51.446;6.698;2022-12-22T13:47:43;16.10;;;13.97;;
12271;SDS011;6198;51.446;6.698;2022-12-22T13:50:24;19.70;;;14.47;;
12271;SDS011;6198;51.446;6.698;2022-12-22T13:52:51;18.70;;;13.47;;
12271;SDS011;6198;51.446;6.698;2022-12-22T13:55:19;23.20;;;14.97;;
12271;SDS011;6198;51.446;6.698;2022-12-22T13:57:46;17.03;;;13.20;;
12271;SDS011;6198;51.446;6.698;2022-12-22T14:00:16;19.67;;;13.47;;
12271;SDS011;6198;51.446;6.698;2022-12-22T14:02:43;18.93;;;13.47;;
12271;SDS011;6198;51.446;6.698;2022-12-22T14:05:10;17.27;;;13.33;;
12271;SDS011;6198;51.446;6.698;2022-12-22T14:07:36;16.63;;;12.83;;
12271;SDS011;6198;51.446;6.698;2022-12-22T14:10:02;17.57;;;13.60;;
12271;SDS011;6198;51.446;6.698;2022-12-22T14:12:29;17.77;;;11.97;;
12271;SDS011;6198;51.446;6.698;2022-12-22T14:14:56;16.33;;;12.07;;
12271;SDS011;6198;51.446;6.698;2022-12-22T14:17:24;17.47;;;13.27;;
12271;SDS011;6198;51.446;6.698;2022-12-22T14:19:51;18.07;;;14.40;;
12271;SDS011;6198;51.446;6.698;2022-12-22T14:22:30;18.80;;;15.33;;
12271;SDS011;6198;51.446;6.698;2022-12-22T14:25:03;17.70;;;15.03;;
12271;SDS011;6198;51.446;6.698;2022-12-22T14:27:34;37.70;;;25.80;;
12271;SDS011;6198;51.446;6.698;2022-12-22T14:30:03;44.40;;;31.73;;
12271;SDS011;6198;51.446;6.698;2022-12-22T14:34:58;24.43;;;17.73;;
12271;SDS011;6198;51.446;6.698;2022-12-22T14:37:24;21.53;;;14.67;;
12271;SDS011;6198;51.446;6.698;2022-12-22T14:39:54;28.07;;;21.03;;
12271;SDS011;6198;51.446;6.698;2022-12-22T14:42:20;17.77;;;13.00;;
12271;SDS011;6198;51.446;6.698;2022-12-22T14:44:46;26.43;;;16.80;;
12271;SDS011;6198;51.446;6.698;2022-12-22T14:47:16;24.47;;;21.87;;
12271;SDS011;6198;51.446;6.698;2022-12-22T14:49:44;23.53;;;19.40;;
12271;SDS011;6198;51.446;6.698;2022-12-22T14:52:16;17.00;;;13.63;;
12271;SDS011;6198;51.446;6.698;2022-12-22T14:54:47;21.67;;;14.20;;
12271;SDS011;6198;51.446;6.698;2022-12-22T14:57:15;17.37;;;13.43;;
12271;SDS011;6198;51.446;6.698;2022-12-22T14:59:55;17.63;;;14.00;;
12271;SDS011;6198;51.446;6.698;2022-12-22T15:02:27;17.53;;;13.87;;
12271;SDS011;6198;51.446;6.698;2022-12-22T15:07:46;18.17;;;12.37;;
12271;SDS011;6198;51.446;6.698;2022-12-22T15:10:12;16.80;;;12.57;;
12271;SDS011;6198;51.446;6.698;2022-12-22T15:12:38;17.37;;;12.07;;
12271;SDS011;6198;51.446;6.698;2022-12-22T15:15:10;13.27;;;11.53;;
12271;SDS011;6198;51.446;6.698;2022-12-22T15:17:37;17.67;;;13.13;;
12271;SDS011;6198;51.446;6.698;2022-12-22T15:20:03;16.63;;;12.93;;
12271;SDS011;6198;51.446;6.698;2022-12-22T15:22:29;14.30;;;11.10;;
12271;SDS011;6198;51.446;6.698;2022-12-22T15:24:55;10.67;;;9.27;;
12271;SDS011;6198;51.446;6.698;2022-12-22T15:27:21;11.27;;;8.93;;
12271;SDS011;6198;51.446;6.698;2022-12-22T15:29:47;12.27;;;9.67;;
12271;SDS011;6198;51.446;6.698;2022-12-22T15:32:13;12.43;;;10.90;;
12271;SDS011;6198;51.446;6.698;2022-12-22T15:34:40;46.07;;;39.33;;
12271;SDS011;6198;51.446;6.698;2022-12-22T15:37:08;13.30;;;10.93;;
12271;SDS011;6198;51.446;6.698;2022-12-22T15:39:35;22.17;;;17.53;;
12271;SDS011;6198;51.446;6.698;2022-12-22T15:42:01;13.30;;;11.57;;
12271;SDS011;6198;51.446;6.698;2022-12-22T15:44:27;24.67;;;20.03;;
12271;SDS011;6198;51.446;6.698;2022-12-22T15:46:53;11.33;;;10.17;;
12271;SDS011;6198;51.446;6.698;2022-12-22T15:49:21;15.50;;;11.50;;
12271;SDS011;6198;51.446;6.698;2022-12-22T15:51:48;27.60;;;21.83;;
12271;SDS011;6198;51.446;6.698;2022-12-22T15:54:14;13.47;;;12.07;;
12271;SDS011;6198;51.446;6.698;2022-12-22T15:56:41;21.30;;;15.17;;
12271;SDS011;6198;51.446;6.698;2022-12-22T15:59:09;23.10;;;17.57;;
12271;SDS011;6198;51.446;6.698;2022-12-22T16:01:37;21.17;;;15.67;;
12271;SDS011;6198;51.446;6.698;2022-12-22T16:04:03;17.37;;;14.30;;
12271;SDS011;6198;51.446;6.698;2022-12-22T16:06:29;18.60;;;16.10;;
12271;SDS011;6198;51.446;6.698;2022-12-22T16:08:55;16.07;;;14.40;;
12271;SDS011;6198;51.446;6.698;2022-12-22T16:11:21;20.13;;;16.83;;
12271;SDS011;6198;51.446;6.698;2022-12-22T16:13:48;32.13;;;17.03;;
12271;SDS011;6198;51.446;6.698;2022-12-22T16:16:14;43.43;;;18.37;;
12271;SDS011;6198;51.446;6.698;2022-12-22T16:18:40;25.00;;;18.27;;
12271;SDS011;6198;51.446;6.698;2022-12-22T16:21:09;43.97;;;19.10;;
12271;SDS011;6198;51.446;6.698;2022-12-22T16:23:36;25.13;;;18.40;;
12271;SDS011;6198;51.446;6.698;2022-12-22T16:26:03;33.30;;;22.43;;
12271;SDS011;6198;51.446;6.698;2022-12-22T16:28:29;23.37;;;19.70;;
12271;SDS011;6198;51.446;6.698;2022-12-22T16:30:57;20.60;;;17.33;;
12271;SDS011;6198;51.446;6.698;2022-12-22T16:33:23;32.90;;;29.57;;
12271;SDS011;6198;51.446;6.698;2022-12-22T16:35:49;39.83;;;19.73;;
12271;SDS011;6198;51.446;6.698;2022-12-22T16:38:15;22.83;;;20.33;;
12271;SDS011;6198;51.446;6.698;2022-12-22T16:40:48;42.93;;;23.10;;
12271;SDS011;6198;51.446;6.698;2022-12-22T16:45:43;39.23;;;28.93;;